createdAt,value
2018-07-21T00:00:43.330Z,20.80
2018-07-21T00:01:43.519Z,20.78
2018-07-21T00:02:43.689Z,20.67
2018-07-21T00:03:43.871Z,20.63
2018-07-21T00:04:44.052Z,20.63
2018-07-21T00:05:44.232Z,20.60
2018-07-21T00:06:44.407Z,20.60
2018-07-21T00:07:44.584Z,20.59
2018-07-21T00:08:46.815Z,20.50
2018-07-21T00:09:48.062Z,20.52
2018-07-21T00:10:48.264Z,20.51
2018-07-21T00:11:45.380Z,20.51
2018-07-21T00:12:49.027Z,20.39
2018-07-21T00:13:47.813Z,20.41
2018-07-21T00:14:49.852Z,20.36
2018-07-21T00:15:47.966Z,20.40
2018-07-21T00:16:48.369Z,20.40
2018-07-21T00:17:50.616Z,20.40
2018-07-21T00:18:46.352Z,20.43
2018-07-21T00:19:46.530Z,20.36
2018-07-21T00:20:46.709Z,20.32
2018-07-21T00:21:46.892Z,20.39
2018-07-21T00:22:47.077Z,20.32
2018-07-21T00:23:47.250Z,20.26
2018-07-21T00:24:47.432Z,20.21
2018-07-21T00:25:47.602Z,20.18
2018-07-21T00:26:47.790Z,20.14
2018-07-21T00:27:47.967Z,20.16
2018-07-21T00:28:48.138Z,20.19
2018-07-21T00:29:48.317Z,20.16
2018-07-21T00:30:48.489Z,20.21
2018-07-21T00:31:48.661Z,20.14
2018-07-21T00:32:48.846Z,20.24
2018-07-21T00:33:49.020Z,20.24
2018-07-21T00:34:49.194Z,20.14
2018-07-21T00:35:49.375Z,20.10
2018-07-21T00:36:49.549Z,20.10
2018-07-21T00:37:49.723Z,20.21
2018-07-21T00:38:49.915Z,20.16
2018-07-21T00:39:50.092Z,20.06
2018-07-21T00:40:50.263Z,20.11
2018-07-21T00:41:50.442Z,20.04
2018-07-21T00:42:50.658Z,20.09
2018-07-21T00:43:50.830Z,20.11
2018-07-21T00:44:51.008Z,20.07
2018-07-21T00:45:51.185Z,20.16
2018-07-21T00:46:51.365Z,20.02
2018-07-21T00:47:51.544Z,20.04
2018-07-21T00:48:51.718Z,20.00
2018-07-21T00:49:51.899Z,20.04
2018-07-21T00:50:52.075Z,20.04
2018-07-21T00:51:52.251Z,20.06
2018-07-21T00:52:52.433Z,20.06
2018-07-21T00:53:52.612Z,20.10
2018-07-21T00:54:52.795Z,20.04
2018-07-21T00:55:52.969Z,20.19
2018-07-21T00:56:53.147Z,20.18
2018-07-21T00:57:53.325Z,20.16
2018-07-21T00:58:53.510Z,20.21
2018-07-21T00:59:53.690Z,20.21
2018-07-21T01:00:53.871Z,20.19
2018-07-21T01:01:54.045Z,20.19
2018-07-21T01:02:54.223Z,20.21
2018-07-21T01:03:54.400Z,20.16
2018-07-21T01:04:54.579Z,20.19
2018-07-21T01:05:54.758Z,20.22
2018-07-21T01:06:54.937Z,20.11
2018-07-21T01:07:55.113Z,20.25
2018-07-21T01:08:55.290Z,20.16
2018-07-21T01:09:55.467Z,20.22
2018-07-21T01:10:55.745Z,20.29
2018-07-21T01:11:55.814Z,20.18
2018-07-21T01:12:55.987Z,20.18
2018-07-21T01:13:56.164Z,20.21
2018-07-21T01:14:56.344Z,20.28
2018-07-21T01:15:56.525Z,20.36
2018-07-21T01:16:56.703Z,20.25
2018-07-21T01:17:56.885Z,20.39
2018-07-21T01:18:57.056Z,20.34
2018-07-21T01:19:57.235Z,20.36
2018-07-21T01:20:57.410Z,20.37
2018-07-21T01:21:57.582Z,20.39
2018-07-21T01:22:57.759Z,20.29
2018-07-21T01:23:57.926Z,20.34
2018-07-21T01:24:58.108Z,20.37
2018-07-21T01:25:58.278Z,20.34
2018-07-21T01:26:58.464Z,20.26
2018-07-21T01:27:58.637Z,20.32
2018-07-21T01:28:58.816Z,20.21
2018-07-21T01:29:58.991Z,20.32
2018-07-21T01:30:59.165Z,20.28
2018-07-21T01:31:59.353Z,20.36
2018-07-21T01:32:59.529Z,20.37
2018-07-21T01:33:59.706Z,20.41
2018-07-21T01:34:59.887Z,20.28
2018-07-21T01:36:00.063Z,20.32
2018-07-21T01:37:00.238Z,20.34
2018-07-21T01:38:00.411Z,20.48
2018-07-21T01:39:00.589Z,20.43
2018-07-21T01:40:00.768Z,20.41
2018-07-21T01:41:00.952Z,20.44
2018-07-21T01:42:01.132Z,20.41
2018-07-21T01:43:01.311Z,20.40
2018-07-21T01:44:01.486Z,20.39
2018-07-21T01:45:01.666Z,20.39
2018-07-21T01:46:01.855Z,20.41
2018-07-21T01:47:02.046Z,20.39
2018-07-21T01:48:02.221Z,20.36
2018-07-21T01:49:02.405Z,20.39
2018-07-21T01:50:02.585Z,20.36
2018-07-21T01:51:02.771Z,20.32
2018-07-21T01:52:02.941Z,20.36
2018-07-21T01:53:03.114Z,20.34
2018-07-21T01:54:03.294Z,20.32
2018-07-21T01:55:03.473Z,20.37
2018-07-21T01:56:03.650Z,20.32
2018-07-21T01:57:03.817Z,20.22
2018-07-21T01:58:04.000Z,20.22
2018-07-21T01:59:04.175Z,20.22
2018-07-21T02:00:04.357Z,20.22
2018-07-21T02:01:04.534Z,20.13
2018-07-21T02:02:04.705Z,20.31
2018-07-21T02:03:04.896Z,20.36
2018-07-21T02:04:05.076Z,20.31
2018-07-21T02:05:05.253Z,20.29
2018-07-21T02:06:05.433Z,20.32
2018-07-21T02:07:05.607Z,20.34
2018-07-21T02:08:05.792Z,20.28
2018-07-21T02:09:05.966Z,20.21
2018-07-21T02:10:06.144Z,20.24
2018-07-21T02:11:06.316Z,20.11
2018-07-21T02:12:06.489Z,19.99
2018-07-21T02:13:06.668Z,20.06
2018-07-21T02:14:06.847Z,20.07
2018-07-21T02:15:07.029Z,20.07
2018-07-21T02:16:07.198Z,20.04
2018-07-21T02:17:07.387Z,20.10
2018-07-21T02:18:07.550Z,20.03
2018-07-21T02:19:07.730Z,20.07
2018-07-21T02:20:07.903Z,20.02
2018-07-21T02:21:08.081Z,20.02
2018-07-21T02:22:08.265Z,20.06
2018-07-21T02:23:08.446Z,20.03
2018-07-21T02:24:08.625Z,19.91
2018-07-21T02:25:08.797Z,19.79
2018-07-21T02:26:08.982Z,19.77
2018-07-21T02:27:09.157Z,19.81
2018-07-21T02:28:09.328Z,19.86
2018-07-21T02:29:09.509Z,19.91
2018-07-21T02:30:09.689Z,19.85
2018-07-21T02:31:09.866Z,19.82
2018-07-21T02:32:10.104Z,19.86
2018-07-21T02:33:10.222Z,19.88
2018-07-21T02:34:10.403Z,19.91
2018-07-21T02:35:10.581Z,19.91
2018-07-21T02:36:10.760Z,19.85
2018-07-21T02:37:10.941Z,20.00
2018-07-21T02:38:11.118Z,19.96
2018-07-21T02:39:11.291Z,19.92
2018-07-21T02:40:11.472Z,19.91
2018-07-21T02:41:11.650Z,19.91
2018-07-21T02:42:13.073Z,19.91
2018-07-21T02:43:11.964Z,19.95
2018-07-21T02:44:12.139Z,19.79
2018-07-21T02:45:12.320Z,19.84
2018-07-21T02:46:12.504Z,19.92
2018-07-21T02:47:12.676Z,19.77
2018-07-21T02:48:12.854Z,19.79
2018-07-21T02:49:13.034Z,19.85
2018-07-21T02:50:13.208Z,19.77
2018-07-21T02:51:13.386Z,19.77
2018-07-21T02:52:13.565Z,19.82
2018-07-21T02:53:13.750Z,19.69
2018-07-21T02:54:13.921Z,19.79
2018-07-21T02:55:14.104Z,19.81
2018-07-21T02:56:14.277Z,19.81
2018-07-21T02:57:14.452Z,19.85
2018-07-21T02:58:14.628Z,19.84
2018-07-21T02:59:14.807Z,19.89
2018-07-21T03:00:14.979Z,19.74
2018-07-21T03:01:15.148Z,19.86
2018-07-21T03:02:15.324Z,19.85
2018-07-21T03:03:15.506Z,19.81
2018-07-21T03:04:15.689Z,19.79
2018-07-21T03:05:15.862Z,19.82
2018-07-21T03:06:16.041Z,19.92
2018-07-21T03:07:16.219Z,19.86
2018-07-21T03:08:16.398Z,19.81
2018-07-21T03:09:16.573Z,19.77
2018-07-21T03:10:16.748Z,19.84
2018-07-21T03:11:16.923Z,19.88
2018-07-21T03:12:17.108Z,19.88
2018-07-21T03:13:17.283Z,19.89
2018-07-21T03:14:17.467Z,19.86
2018-07-21T03:15:17.640Z,19.81
2018-07-21T03:16:17.817Z,19.82
2018-07-21T03:17:17.988Z,19.92
2018-07-21T03:18:18.166Z,19.79
2018-07-21T03:19:18.341Z,19.76
2018-07-21T03:20:18.517Z,19.88
2018-07-21T03:21:18.699Z,19.89
2018-07-21T03:22:18.870Z,19.86
2018-07-21T03:23:19.148Z,19.91
2018-07-21T03:24:19.231Z,19.94
2018-07-21T03:25:19.411Z,19.89
2018-07-21T03:26:19.587Z,19.92
2018-07-21T03:27:19.760Z,20.04
2018-07-21T03:28:19.938Z,20.06
2018-07-21T03:29:20.112Z,20.00
2018-07-21T03:30:20.294Z,20.00
2018-07-21T03:31:20.464Z,20.04
2018-07-21T03:32:20.646Z,20.13
2018-07-21T03:33:20.834Z,20.21
2018-07-21T03:34:21.008Z,20.21
2018-07-21T03:35:21.187Z,20.14
2018-07-21T03:36:21.364Z,20.16
2018-07-21T03:37:21.545Z,20.21
2018-07-21T03:38:21.716Z,20.24
2018-07-21T03:39:21.890Z,20.19
2018-07-21T03:40:22.077Z,20.18
2018-07-21T03:41:22.249Z,20.22
2018-07-21T03:42:22.431Z,20.21
2018-07-21T03:43:22.603Z,20.07
2018-07-21T03:44:22.780Z,20.10
2018-07-21T03:45:22.961Z,20.13
2018-07-21T03:46:23.132Z,20.07
2018-07-21T03:47:23.314Z,20.03
2018-07-21T03:48:23.497Z,20.04
2018-07-21T03:49:23.670Z,20.06
2018-07-21T03:50:23.854Z,20.03
2018-07-21T03:51:24.027Z,20.09
2018-07-21T03:52:24.215Z,20.07
2018-07-21T03:53:24.391Z,20.03
2018-07-21T03:54:24.574Z,20.11
2018-07-21T03:55:24.745Z,20.00
2018-07-21T03:56:24.928Z,20.09
2018-07-21T03:57:25.107Z,20.10
2018-07-21T03:58:25.285Z,20.07
2018-07-21T03:59:25.479Z,20.06
2018-07-21T04:00:25.700Z,20.06
2018-07-21T04:01:25.822Z,20.02
2018-07-21T04:02:25.998Z,20.00
2018-07-21T04:03:26.175Z,19.95
2018-07-21T04:04:26.356Z,19.92
2018-07-21T04:05:26.527Z,19.94
2018-07-21T04:06:26.706Z,19.86
2018-07-21T04:07:26.884Z,19.92
2018-07-21T04:08:27.062Z,19.99
2018-07-21T04:09:27.240Z,20.07
2018-07-21T04:10:27.413Z,20.02
2018-07-21T04:11:27.590Z,20.00
2018-07-21T04:12:27.773Z,20.03
2018-07-21T04:13:27.952Z,20.10
2018-07-21T04:14:28.136Z,20.06
2018-07-21T04:15:28.321Z,20.07
2018-07-21T04:16:28.567Z,20.09
2018-07-21T04:17:28.675Z,20.03
2018-07-21T04:18:28.851Z,20.16
2018-07-21T04:19:29.028Z,20.16
2018-07-21T04:20:29.214Z,20.18
2018-07-21T04:21:31.765Z,20.19
2018-07-21T04:22:29.605Z,20.18
2018-07-21T04:23:29.600Z,20.24
2018-07-21T04:24:29.777Z,20.28
2018-07-21T04:25:29.952Z,20.25
2018-07-21T04:26:30.133Z,20.26
2018-07-21T04:27:30.336Z,20.34
2018-07-21T04:28:30.510Z,20.32
2018-07-21T04:29:30.691Z,20.36
2018-07-21T04:30:30.859Z,20.34
2018-07-21T04:31:31.039Z,20.37
2018-07-21T04:32:31.220Z,20.41
2018-07-21T04:33:31.393Z,20.36
2018-07-21T04:34:31.572Z,20.48
2018-07-21T04:35:31.750Z,20.41
2018-07-21T04:36:31.924Z,20.44
2018-07-21T04:37:32.104Z,20.48
2018-07-21T04:38:32.295Z,20.44
2018-07-21T04:39:32.467Z,20.51
2018-07-21T04:40:32.647Z,20.44
2018-07-21T04:41:32.826Z,20.60
2018-07-21T04:42:33.016Z,20.47
2018-07-21T04:43:33.187Z,20.43
2018-07-21T04:44:33.368Z,20.62
2018-07-21T04:45:33.551Z,20.52
2018-07-21T04:46:33.725Z,20.66
2018-07-21T04:47:33.899Z,20.60
2018-07-21T04:48:34.077Z,20.58
2018-07-21T04:49:34.256Z,20.62
2018-07-21T04:50:34.443Z,20.74
2018-07-21T04:51:34.630Z,20.77
2018-07-21T04:52:34.806Z,20.69
2018-07-21T04:53:34.990Z,20.84
2018-07-21T04:54:35.169Z,20.84
2018-07-21T04:55:35.356Z,20.74
2018-07-21T04:56:35.544Z,20.93
2018-07-21T04:57:35.713Z,20.84
2018-07-21T04:58:35.896Z,20.74
2018-07-21T04:59:36.079Z,20.70
2018-07-21T05:00:36.270Z,20.65
2018-07-21T05:01:36.465Z,20.58
2018-07-21T05:02:36.708Z,20.52
2018-07-21T05:03:36.855Z,20.44
2018-07-21T05:04:37.118Z,20.47
2018-07-21T05:05:37.233Z,20.47
2018-07-21T05:06:37.302Z,20.48
2018-07-21T05:07:37.476Z,20.32
2018-07-21T05:08:37.715Z,20.31
2018-07-21T05:09:37.867Z,20.19
2018-07-21T05:10:38.051Z,20.22
2018-07-21T05:11:38.231Z,20.11
2018-07-21T05:12:38.414Z,20.10
2018-07-21T05:13:38.597Z,20.11
2018-07-21T05:14:38.892Z,20.09
2018-07-21T05:15:38.898Z,19.99
2018-07-21T05:16:39.107Z,20.19
2018-07-21T05:17:39.287Z,20.04
2018-07-21T05:18:39.471Z,20.09
2018-07-21T05:19:39.706Z,20.07
2018-07-21T05:20:39.806Z,20.06
2018-07-21T05:21:39.878Z,20.02
2018-07-21T05:22:40.938Z,19.99
2018-07-21T05:23:40.191Z,20.04
2018-07-21T05:24:40.706Z,20.09
2018-07-21T05:25:41.827Z,20.11
2018-07-21T05:26:42.009Z,20.18
2018-07-21T05:27:42.978Z,20.22
2018-07-21T05:28:42.500Z,20.14
2018-07-21T05:29:41.168Z,20.18
2018-07-21T05:30:43.376Z,20.14
2018-07-21T05:31:41.562Z,20.21
2018-07-21T05:32:41.745Z,20.29
2018-07-21T05:33:41.909Z,20.43
2018-07-21T05:34:42.128Z,20.62
2018-07-21T05:35:42.339Z,20.70
2018-07-21T05:36:42.490Z,20.95
2018-07-21T05:37:42.711Z,21.14
2018-07-21T05:38:42.855Z,21.14
2018-07-21T05:39:43.026Z,21.20
2018-07-21T05:40:43.216Z,21.39
2018-07-21T05:41:43.404Z,21.55
2018-07-21T05:42:43.588Z,21.60
2018-07-21T05:43:43.776Z,21.73
2018-07-21T05:44:43.958Z,21.80
2018-07-21T05:45:44.141Z,21.99
2018-07-21T05:46:44.326Z,22.13
2018-07-21T05:47:44.521Z,22.14
2018-07-21T05:48:44.689Z,22.23
2018-07-21T05:49:44.866Z,22.29
2018-07-21T05:50:45.049Z,22.33
2018-07-21T05:51:45.236Z,22.45
2018-07-21T05:52:45.442Z,22.59
2018-07-21T05:53:45.662Z,22.66
2018-07-21T05:54:45.726Z,22.75
2018-07-21T05:55:45.911Z,22.84
2018-07-21T05:56:46.096Z,22.93
2018-07-21T05:57:46.277Z,23.00
2018-07-21T05:58:46.476Z,22.98
2018-07-21T05:59:46.668Z,22.98
2018-07-21T06:00:46.848Z,23.00
2018-07-21T06:01:47.034Z,22.87
2018-07-21T06:02:47.248Z,22.87
2018-07-21T06:03:47.400Z,22.94
2018-07-21T06:04:47.576Z,23.06
2018-07-21T06:05:47.749Z,23.18
2018-07-21T06:06:47.950Z,23.25
2018-07-21T06:07:48.115Z,23.41
2018-07-21T06:08:48.348Z,23.58
2018-07-21T06:09:48.614Z,23.68
2018-07-21T06:10:48.649Z,23.65
2018-07-21T06:11:48.834Z,23.69
2018-07-21T06:12:49.017Z,23.84
2018-07-21T06:13:49.200Z,23.92
2018-07-21T06:14:49.383Z,24.06
2018-07-21T06:15:49.564Z,24.06
2018-07-21T06:16:49.754Z,24.28
2018-07-21T06:17:49.935Z,24.35
2018-07-21T06:18:50.120Z,24.48
2018-07-21T06:19:50.335Z,24.57
2018-07-21T06:20:50.478Z,24.48
2018-07-21T06:21:50.664Z,24.45
2018-07-21T06:22:50.837Z,24.76
2018-07-21T06:23:51.026Z,24.99
2018-07-21T06:24:51.203Z,25.32
2018-07-21T06:25:51.397Z,25.33
2018-07-21T06:26:51.577Z,25.60
2018-07-21T06:27:51.764Z,25.87
2018-07-21T06:28:51.953Z,26.05
2018-07-21T06:29:52.134Z,26.37
2018-07-21T06:30:52.319Z,26.60
2018-07-21T06:31:52.508Z,26.90
2018-07-21T06:32:52.700Z,27.12
2018-07-21T06:33:52.880Z,27.42
2018-07-21T06:34:53.065Z,27.64
2018-07-21T06:35:53.247Z,27.83
2018-07-21T06:36:53.436Z,28.12
2018-07-21T06:37:53.622Z,28.30
2018-07-21T06:38:53.810Z,28.60
2018-07-21T06:39:53.998Z,28.84
2018-07-21T06:40:54.174Z,28.48
2018-07-21T06:41:54.358Z,28.48
2018-07-21T06:42:54.541Z,28.60
2018-07-21T06:43:54.731Z,28.70
2018-07-21T06:44:54.913Z,28.78
2018-07-21T06:45:55.099Z,28.60
2018-07-21T06:46:55.289Z,28.56
2018-07-21T06:47:55.472Z,28.69
2018-07-21T06:48:55.653Z,29.02
2018-07-21T06:49:55.850Z,29.29
2018-07-21T06:50:56.034Z,29.29
2018-07-21T06:51:56.215Z,29.53
2018-07-21T06:52:56.404Z,29.61
2018-07-21T06:53:56.590Z,29.78
2018-07-21T06:54:56.782Z,29.78
2018-07-21T06:55:56.979Z,29.36
2018-07-21T06:56:57.158Z,29.45
2018-07-21T06:57:57.376Z,29.35
2018-07-21T06:58:57.586Z,29.29
2018-07-21T06:59:57.874Z,29.07
2018-07-21T07:00:57.914Z,28.88
2018-07-21T07:01:58.099Z,28.67
2018-07-21T07:02:58.285Z,28.59
2018-07-21T07:03:58.465Z,28.30
2018-07-21T07:04:58.669Z,28.20
2018-07-21T07:05:58.853Z,28.20
2018-07-21T07:06:59.086Z,28.15
2018-07-21T07:07:59.231Z,28.04
2018-07-21T07:08:59.407Z,28.38
2018-07-21T07:09:59.605Z,28.79
2018-07-21T07:10:59.785Z,29.10
2018-07-21T07:11:59.966Z,29.19
2018-07-21T07:13:05.128Z,29.56
2018-07-21T07:14:00.287Z,29.81
2018-07-21T07:15:00.470Z,30.08
2018-07-21T07:16:00.653Z,30.53
2018-07-21T07:17:00.836Z,30.77
2018-07-21T07:18:01.023Z,30.81
2018-07-21T07:19:01.217Z,31.09
2018-07-21T07:20:01.434Z,31.22
2018-07-21T07:21:03.117Z,31.28
2018-07-21T07:22:01.909Z,31.36
2018-07-21T07:23:02.221Z,31.55
2018-07-21T07:24:05.586Z,31.74
2018-07-21T07:25:03.052Z,31.77
2018-07-21T07:26:04.441Z,31.43
2018-07-21T07:27:03.460Z,31.46
2018-07-21T07:28:02.988Z,31.42
2018-07-21T07:29:04.617Z,31.54
2018-07-21T07:30:03.545Z,31.51
2018-07-21T07:31:05.233Z,31.17
2018-07-21T07:32:04.765Z,30.97
2018-07-21T07:33:04.915Z,30.77
2018-07-21T07:34:04.771Z,30.43
2018-07-21T07:35:05.045Z,30.05
2018-07-21T07:36:05.147Z,30.05
2018-07-21T07:37:05.364Z,30.08
2018-07-21T07:38:05.583Z,30.35
2018-07-21T07:39:05.916Z,30.62
2018-07-21T07:40:06.116Z,30.70
2018-07-21T07:41:06.468Z,30.73
2018-07-21T07:42:06.227Z,30.94
2018-07-21T07:43:06.273Z,31.20
2018-07-21T07:44:06.665Z,31.25
2018-07-21T07:45:06.963Z,31.44
2018-07-21T07:46:06.666Z,31.31
2018-07-21T07:47:06.315Z,31.34
2018-07-21T07:48:06.497Z,31.21
2018-07-21T07:49:06.606Z,30.99
2018-07-21T07:50:06.843Z,30.69
2018-07-21T07:51:07.226Z,30.65
2018-07-21T07:52:07.374Z,30.39
2018-07-21T07:53:07.205Z,30.06
2018-07-21T07:54:07.494Z,29.88
2018-07-21T07:55:07.912Z,29.59
2018-07-21T07:56:07.972Z,29.45
2018-07-21T07:57:08.121Z,29.10
2018-07-21T07:58:08.156Z,28.91
2018-07-21T07:59:08.324Z,28.74
2018-07-21T08:00:08.531Z,28.72
2018-07-21T08:01:09.364Z,28.57
2018-07-21T08:02:09.816Z,28.48
2018-07-21T08:03:10.018Z,28.37
2018-07-21T08:04:11.466Z,28.17
2018-07-21T08:05:10.895Z,28.08
2018-07-21T08:06:10.650Z,28.12
2018-07-21T08:07:10.971Z,28.14
2018-07-21T08:08:12.676Z,28.23
2018-07-21T08:09:11.998Z,28.25
2018-07-21T08:10:10.476Z,28.26
2018-07-21T08:11:11.825Z,28.19
2018-07-21T08:12:12.066Z,27.98
2018-07-21T08:13:12.418Z,27.78
2018-07-21T08:14:12.387Z,27.64
2018-07-21T08:15:12.734Z,27.59
2018-07-21T08:16:11.503Z,27.51
2018-07-21T08:17:12.454Z,27.42
2018-07-21T08:18:13.222Z,27.44
2018-07-21T08:19:13.120Z,27.30
2018-07-21T08:20:13.780Z,27.21
2018-07-21T08:21:12.963Z,27.10
2018-07-21T08:22:12.928Z,27.10
2018-07-21T08:23:14.809Z,27.08
2018-07-21T08:24:15.276Z,26.95
2018-07-21T08:25:12.947Z,27.00
2018-07-21T08:26:14.085Z,26.70
2018-07-21T08:27:13.237Z,26.62
2018-07-21T08:28:13.961Z,26.73
2018-07-21T08:29:14.103Z,26.78
2018-07-21T08:30:15.021Z,26.75
2018-07-21T08:31:15.000Z,26.80
2018-07-21T08:32:15.998Z,26.88
2018-07-21T08:33:15.911Z,27.00
2018-07-21T08:34:14.986Z,27.02
2018-07-21T08:35:17.795Z,27.14
2018-07-21T08:36:18.699Z,27.14
2018-07-21T08:37:17.015Z,27.15
2018-07-21T08:38:17.020Z,27.21
2018-07-21T08:39:15.223Z,27.18
2018-07-21T08:40:15.378Z,27.26
2018-07-21T08:41:15.817Z,27.22
2018-07-21T08:42:16.017Z,27.20
2018-07-21T08:43:15.884Z,27.20
2018-07-21T08:44:16.089Z,27.11
2018-07-21T08:45:16.507Z,27.22
2018-07-21T08:46:18.570Z,27.22
2018-07-21T08:47:16.948Z,27.22
2018-07-21T08:48:17.197Z,27.26
2018-07-21T08:49:18.300Z,27.33
2018-07-21T08:50:17.628Z,27.36
2018-07-21T08:51:17.429Z,27.45
2018-07-21T08:52:17.614Z,27.47
2018-07-21T08:53:17.797Z,27.45
2018-07-21T08:54:17.982Z,27.39
2018-07-21T08:55:18.177Z,27.33
2018-07-21T08:56:18.967Z,27.32
2018-07-21T08:57:18.527Z,27.26
2018-07-21T08:58:18.711Z,27.18
2018-07-21T08:59:18.898Z,26.99
2018-07-21T09:00:19.085Z,27.03
2018-07-21T09:01:19.266Z,27.08
2018-07-21T09:02:19.448Z,26.99
2018-07-21T09:03:19.627Z,26.99
2018-07-21T09:04:19.807Z,27.00
2018-07-21T09:05:19.989Z,27.05
2018-07-21T09:06:20.176Z,27.05
2018-07-21T09:07:20.478Z,27.00
2018-07-21T09:08:21.252Z,27.07
2018-07-21T09:09:20.606Z,26.84
2018-07-21T09:10:21.004Z,26.95
2018-07-21T09:11:21.093Z,26.95
2018-07-21T09:12:21.386Z,26.80
2018-07-21T09:13:21.595Z,26.85
2018-07-21T09:14:21.611Z,26.93
2018-07-21T09:15:22.108Z,26.99
2018-07-21T09:16:22.287Z,26.99
2018-07-21T09:17:22.091Z,27.02
2018-07-21T09:18:22.433Z,27.00
2018-07-21T09:19:22.439Z,26.85
2018-07-21T09:20:23.395Z,27.02
2018-07-21T09:21:23.065Z,27.10
2018-07-21T09:22:22.902Z,27.11
2018-07-21T09:23:23.092Z,27.22
2018-07-21T09:24:23.291Z,27.32
2018-07-21T09:25:23.479Z,27.49
2018-07-21T09:26:23.656Z,27.55
2018-07-21T09:27:24.236Z,27.45
2018-07-21T09:28:24.608Z,27.51
2018-07-21T09:29:24.332Z,27.60
2018-07-21T09:30:24.507Z,27.63
2018-07-21T09:31:24.724Z,27.51
2018-07-21T09:32:25.163Z,27.52
2018-07-21T09:33:25.083Z,27.70
2018-07-21T09:34:25.716Z,27.80
2018-07-21T09:35:25.147Z,27.95
2018-07-21T09:36:25.362Z,27.96
2018-07-21T09:37:25.548Z,27.98
2018-07-21T09:38:25.723Z,28.00
2018-07-21T09:39:25.920Z,28.04
2018-07-21T09:40:26.083Z,28.04
2018-07-21T09:41:26.267Z,28.15
2018-07-21T09:42:26.447Z,27.95
2018-07-21T09:43:26.623Z,27.82
2018-07-21T09:44:26.818Z,27.92
2018-07-21T09:45:27.049Z,27.93
2018-07-21T09:46:27.116Z,27.90
2018-07-21T09:47:27.299Z,27.90
2018-07-21T09:48:27.500Z,28.02
2018-07-21T09:49:27.683Z,28.02
2018-07-21T09:50:27.867Z,28.05
2018-07-21T09:51:28.302Z,27.86
2018-07-21T09:52:28.201Z,27.93
2018-07-21T09:53:28.390Z,27.96
2018-07-21T09:54:28.571Z,28.04
2018-07-21T09:55:28.747Z,28.01
2018-07-21T09:56:28.932Z,28.00
2018-07-21T09:57:29.129Z,28.01
2018-07-21T09:58:29.363Z,27.98
2018-07-21T09:59:29.509Z,27.95
2018-07-21T10:00:29.716Z,27.92
2018-07-21T10:01:30.004Z,28.10
2018-07-21T10:02:30.084Z,27.98
2018-07-21T10:03:30.277Z,27.98
2018-07-21T10:04:30.498Z,27.92
2018-07-21T10:05:30.599Z,27.75
2018-07-21T10:06:30.823Z,27.70
2018-07-21T10:07:30.913Z,27.58
2018-07-21T10:08:31.107Z,27.67
2018-07-21T10:09:31.291Z,27.49
2018-07-21T10:10:31.492Z,27.20
2018-07-21T10:11:35.754Z,27.00
2018-07-21T10:12:32.049Z,26.97
2018-07-21T10:13:32.358Z,27.11
2018-07-21T10:14:32.466Z,27.02
2018-07-21T10:15:32.617Z,26.97
2018-07-21T10:16:32.817Z,27.05
2018-07-21T10:17:33.017Z,26.95
2018-07-21T10:18:32.794Z,26.93
2018-07-21T10:19:33.001Z,26.80
2018-07-21T10:20:33.212Z,26.85
2018-07-21T10:21:33.407Z,26.83
2018-07-21T10:22:33.706Z,26.84
2018-07-21T10:23:33.746Z,26.80
2018-07-21T10:24:33.972Z,26.66
2018-07-21T10:25:34.065Z,26.78
2018-07-21T10:26:34.251Z,26.80
2018-07-21T10:27:34.435Z,26.74
2018-07-21T10:28:34.646Z,26.83
2018-07-21T10:29:37.432Z,26.88
2018-07-21T10:30:37.040Z,26.75
2018-07-21T10:31:37.398Z,26.73
2018-07-21T10:32:37.902Z,26.70
2018-07-21T10:33:36.568Z,26.66
2018-07-21T10:34:39.600Z,26.73
2018-07-21T10:35:38.173Z,26.70
2018-07-21T10:36:40.407Z,26.52
2018-07-21T10:37:40.758Z,26.37
2018-07-21T10:38:42.111Z,26.29
2018-07-21T10:39:39.811Z,26.26
2018-07-21T10:40:37.108Z,26.29
2018-07-21T10:41:37.209Z,26.16
2018-07-21T10:42:37.037Z,26.02
2018-07-21T10:43:37.221Z,26.05
2018-07-21T10:44:37.454Z,25.99
2018-07-21T10:45:37.595Z,25.96
2018-07-21T10:46:37.771Z,25.98
2018-07-21T10:47:37.958Z,26.03
2018-07-21T10:48:38.142Z,26.02
2018-07-21T10:49:38.323Z,26.09
2018-07-21T10:50:38.524Z,26.18
2018-07-21T10:51:38.693Z,26.22
2018-07-21T10:52:38.872Z,26.28
2018-07-21T10:53:39.057Z,26.18
2018-07-21T10:54:39.249Z,26.19
2018-07-21T10:55:39.449Z,26.26
2018-07-21T10:56:39.622Z,26.26
2018-07-21T10:57:39.794Z,26.29
2018-07-21T10:58:39.978Z,26.26
2018-07-21T10:59:40.172Z,26.37
2018-07-21T11:00:40.333Z,26.45
2018-07-21T11:01:40.519Z,26.40
2018-07-21T11:02:40.714Z,26.26
2018-07-21T11:03:40.899Z,26.18
2018-07-21T11:04:41.144Z,26.26
2018-07-21T11:05:41.257Z,26.26
2018-07-21T11:06:41.436Z,26.28
2018-07-21T11:07:41.615Z,26.33
2018-07-21T11:08:41.803Z,26.45
2018-07-21T11:09:41.986Z,26.51
2018-07-21T11:10:42.162Z,26.63
2018-07-21T11:11:42.342Z,26.73
2018-07-21T11:12:42.576Z,26.80
2018-07-21T11:13:42.746Z,26.90
2018-07-21T11:14:42.925Z,26.85
2018-07-21T11:15:43.105Z,26.88
2018-07-21T11:16:43.289Z,26.81
2018-07-21T11:17:43.468Z,26.63
2018-07-21T11:18:43.648Z,26.55
2018-07-21T11:19:43.825Z,26.36
2018-07-21T11:20:44.011Z,26.34
2018-07-21T11:21:44.289Z,26.34
2018-07-21T11:22:44.349Z,26.31
2018-07-21T11:23:44.548Z,26.34
2018-07-21T11:24:44.810Z,26.41
2018-07-21T11:25:44.904Z,26.38
2018-07-21T11:26:45.169Z,26.33
2018-07-21T11:27:45.381Z,26.36
2018-07-21T11:28:45.364Z,26.26
2018-07-21T11:29:45.539Z,26.21
2018-07-21T11:30:45.718Z,26.29
2018-07-21T11:31:45.893Z,26.21
2018-07-21T11:32:46.084Z,26.07
2018-07-21T11:33:46.273Z,26.02
2018-07-21T11:34:46.453Z,25.96
2018-07-21T11:35:46.780Z,26.03
2018-07-21T11:36:46.819Z,26.18
2018-07-21T11:37:47.006Z,26.22
2018-07-21T11:38:47.186Z,26.28
2018-07-21T11:39:47.442Z,26.29
2018-07-21T11:40:47.672Z,26.26
2018-07-21T11:41:47.881Z,26.33
2018-07-21T11:42:48.162Z,26.44
2018-07-21T11:43:48.129Z,26.53
2018-07-21T11:44:48.276Z,26.66
2018-07-21T11:45:48.461Z,26.68
2018-07-21T11:46:48.638Z,26.92
2018-07-21T11:47:48.891Z,26.95
2018-07-21T11:48:48.950Z,26.80
2018-07-21T11:49:49.144Z,26.71
2018-07-21T11:50:49.319Z,26.83
2018-07-21T11:51:49.496Z,26.88
2018-07-21T11:52:49.687Z,26.92
2018-07-21T11:53:49.893Z,26.96
2018-07-21T11:54:50.077Z,26.96
2018-07-21T11:55:50.257Z,26.96
2018-07-21T11:56:50.432Z,26.97
2018-07-21T11:57:50.614Z,26.97
2018-07-21T11:58:50.792Z,26.99
2018-07-21T11:59:50.980Z,27.03
2018-07-21T12:00:51.164Z,26.90
2018-07-21T12:01:51.355Z,26.96
2018-07-21T12:02:51.535Z,26.90
2018-07-21T12:03:51.727Z,26.93
2018-07-21T12:04:51.931Z,26.95
2018-07-21T12:05:52.118Z,26.99
2018-07-21T12:06:52.299Z,26.85
2018-07-21T12:07:52.477Z,26.93
2018-07-21T12:08:52.657Z,26.90
2018-07-21T12:09:52.835Z,26.95
2018-07-21T12:10:53.017Z,26.99
2018-07-21T12:11:53.195Z,27.05
2018-07-21T12:12:53.408Z,27.10
2018-07-21T12:13:53.561Z,27.10
2018-07-21T12:14:53.747Z,27.07
2018-07-21T12:15:54.009Z,27.03
2018-07-21T12:16:54.122Z,27.05
2018-07-21T12:17:54.305Z,27.12
2018-07-21T12:18:54.493Z,27.14
2018-07-21T12:19:54.698Z,27.30
2018-07-21T12:20:54.864Z,27.32
2018-07-21T12:21:55.048Z,27.35
2018-07-21T12:22:55.229Z,27.32
2018-07-21T12:23:55.409Z,27.48
2018-07-21T12:24:55.588Z,27.47
2018-07-21T12:25:55.768Z,27.55
2018-07-21T12:26:55.952Z,27.47
2018-07-21T12:27:56.157Z,27.37
2018-07-21T12:28:56.340Z,27.40
2018-07-21T12:29:56.541Z,27.33
2018-07-21T12:30:56.718Z,27.30
2018-07-21T12:31:56.897Z,27.37
2018-07-21T12:32:57.074Z,27.39
2018-07-21T12:33:57.259Z,27.32
2018-07-21T12:34:57.443Z,27.37
2018-07-21T12:35:57.624Z,27.51
2018-07-21T12:36:57.823Z,27.55
2018-07-21T12:37:58.026Z,27.60
2018-07-21T12:38:58.223Z,27.54
2018-07-21T12:39:58.458Z,27.40
2018-07-21T12:40:58.588Z,27.48
2018-07-21T12:41:58.794Z,27.47
2018-07-21T12:42:59.838Z,27.35
2018-07-21T12:43:59.103Z,27.48
2018-07-21T12:44:59.296Z,27.48
2018-07-21T12:45:59.476Z,27.52
2018-07-21T12:46:59.648Z,27.58
2018-07-21T12:47:59.840Z,27.35
2018-07-21T12:49:00.017Z,27.22
2018-07-21T12:50:00.210Z,27.29
2018-07-21T12:51:00.409Z,27.32
2018-07-21T12:52:00.592Z,27.47
2018-07-21T12:53:00.773Z,27.52
2018-07-21T12:54:01.003Z,27.45
2018-07-21T12:55:01.170Z,27.54